KOLE/OLE METAR and TAF weather

Enter ICAO airport designator
Station Type Date Time Source
KOLE METAR 2022/01/27 23:15 UTC NOAA

KOLE 272315Z AUTO 22008G18KT 5SM -SN SCT027 BKN070 OVC080 M06/M11 A2999 RMK AO2


Station Type Date Time Source
KOLE Decoded METAR 2022/01/27 23:15 UTC NOAA

Olean Municipal, NY, United States (KOLE) 42-14N 078-22W
Jan 27, 2022 - 06:15 PM EST / 2022.01.27 2315 UTC
Wind: from the SW (220 degrees) at 9 MPH (8 KT) gusting to 21 MPH (18 KT):0
Visibility: 5 mile(s):0
Sky conditions: overcast
Weather: light snow
Temperature: 21 F (-6 C)
Windchill: 10 F (-12 C):1
Dew Point: 12 F (-11 C)
Relative Humidity: 67%
Pressure (altimeter): 29.99 in. Hg (1015 hPa)
ob: KOLE 272315Z AUTO 22008G18KT 5SM -SN SCT027 BKN070 OVC080 M06/M11 A2999 RMK AO2
cycle: 23

Station Type Date Time Source
KOLE TAF UTC NOAA

Error!

Example: see airport list